sensor_id;sensor_type;location;lat;lon;timestamp;P1;durP1;ratioP1;P2;durP2;ratioP2
19891;SDS011;10108;50.142;8.724;2022-09-09T00:06:50;8.35;;;5.70;;
19891;SDS011;10108;50.142;8.724;2022-09-09T00:09:28;8.43;;;5.20;;
19891;SDS011;10108;50.142;8.724;2022-09-09T00:14:56;9.85;;;5.60;;
19891;SDS011;10108;50.142;8.724;2022-09-09T00:17:30;7.28;;;5.35;;
19891;SDS011;10108;50.142;8.724;2022-09-09T00:23:05;8.75;;;5.50;;
19891;SDS011;10108;50.142;8.724;2022-09-09T00:28:20;9.60;;;5.38;;
19891;SDS011;10108;50.142;8.724;2022-09-09T00:30:50;8.85;;;5.38;;
19891;SDS011;10108;50.142;8.724;2022-09-09T00:33:17;7.75;;;5.50;;
19891;SDS011;10108;50.142;8.724;2022-09-09T00:35:48;6.72;;;5.07;;
19891;SDS011;10108;50.142;8.724;2022-09-09T00:41:16;7.50;;;5.32;;
19891;SDS011;10108;50.142;8.724;2022-09-09T00:43:46;8.77;;;5.30;;
19891;SDS011;10108;50.142;8.724;2022-09-09T00:46:30;9.50;;;5.43;;
19891;SDS011;10108;50.142;8.724;2022-09-09T00:51:41;8.93;;;5.15;;
19891;SDS011;10108;50.142;8.724;2022-09-09T00:54:24;7.88;;;5.20;;
19891;SDS011;10108;50.142;8.724;2022-09-09T00:57:14;8.80;;;5.35;;
19891;SDS011;10108;50.142;8.724;2022-09-09T01:02:25;8.82;;;5.28;;
19891;SDS011;10108;50.142;8.724;2022-09-09T01:08:05;7.88;;;5.30;;
19891;SDS011;10108;50.142;8.724;2022-09-09T01:10:44;13.15;;;5.60;;
19891;SDS011;10108;50.142;8.724;2022-09-09T01:13:25;8.98;;;5.30;;
19891;SDS011;10108;50.142;8.724;2022-09-09T01:15:58;8.18;;;5.10;;
19891;SDS011;10108;50.142;8.724;2022-09-09T01:18:27;7.38;;;5.63;;
19891;SDS011;10108;50.142;8.724;2022-09-09T01:21:03;7.45;;;5.47;;
19891;SDS011;10108;50.142;8.724;2022-09-09T01:26:46;7.18;;;5.20;;
19891;SDS011;10108;50.142;8.724;2022-09-09T01:29:24;9.50;;;5.50;;
19891;SDS011;10108;50.142;8.724;2022-09-09T01:31:54;9.20;;;5.60;;
19891;SDS011;10108;50.142;8.724;2022-09-09T01:34:27;8.73;;;5.28;;
19891;SDS011;10108;50.142;8.724;2022-09-09T01:37:02;9.70;;;5.50;;
19891;SDS011;10108;50.142;8.724;2022-09-09T01:39:33;12.40;;;5.50;;
19891;SDS011;10108;50.142;8.724;2022-09-09T01:42:04;9.10;;;5.20;;
19891;SDS011;10108;50.142;8.724;2022-09-09T01:44:33;8.27;;;5.00;;
19891;SDS011;10108;50.142;8.724;2022-09-09T01:47:01;7.82;;;5.30;;
19891;SDS011;10108;50.142;8.724;2022-09-09T01:49:28;8.52;;;5.47;;
19891;SDS011;10108;50.142;8.724;2022-09-09T01:51:55;8.75;;;5.60;;
19891;SDS011;10108;50.142;8.724;2022-09-09T01:54:29;8.93;;;5.22;;
19891;SDS011;10108;50.142;8.724;2022-09-09T01:57:06;11.73;;;5.50;;
19891;SDS011;10108;50.142;8.724;2022-09-09T02:05:42;9.70;;;5.00;;
19891;SDS011;10108;50.142;8.724;2022-09-09T02:08:26;9.77;;;5.10;;
19891;SDS011;10108;50.142;8.724;2022-09-09T02:14:06;9.77;;;5.20;;
19891;SDS011;10108;50.142;8.724;2022-09-09T02:16:53;10.50;;;5.47;;
19891;SDS011;10108;50.142;8.724;2022-09-09T02:19:49;7.13;;;5.38;;
19891;SDS011;10108;50.142;8.724;2022-09-09T02:22:38;7.75;;;5.53;;
19891;SDS011;10108;50.142;8.724;2022-09-09T02:25:10;8.48;;;5.38;;
19891;SDS011;10108;50.142;8.724;2022-09-09T02:27:41;10.30;;;5.38;;
19891;SDS011;10108;50.142;8.724;2022-09-09T02:30:10;9.13;;;5.10;;
19891;SDS011;10108;50.142;8.724;2022-09-09T02:32:42;9.63;;;5.22;;
19891;SDS011;10108;50.142;8.724;2022-09-09T02:35:14;12.10;;;5.45;;
19891;SDS011;10108;50.142;8.724;2022-09-09T02:37:44;9.73;;;5.55;;
19891;SDS011;10108;50.142;8.724;2022-09-09T02:40:14;8.80;;;5.60;;
19891;SDS011;10108;50.142;8.724;2022-09-09T02:42:46;9.85;;;5.38;;
19891;SDS011;10108;50.142;8.724;2022-09-09T02:45:14;9.27;;;5.60;;
19891;SDS011;10108;50.142;8.724;2022-09-09T02:53:21;7.10;;;5.47;;
19891;SDS011;10108;50.142;8.724;2022-09-09T02:55:55;9.63;;;5.72;;
19891;SDS011;10108;50.142;8.724;2022-09-09T02:58:36;9.27;;;5.57;;
19891;SDS011;10108;50.142;8.724;2022-09-09T03:01:05;10.50;;;5.63;;
19891;SDS011;10108;50.142;8.724;2022-09-09T03:03:31;9.65;;;5.72;;
19891;SDS011;10108;50.142;8.724;2022-09-09T03:06:00;8.70;;;5.80;;
19891;SDS011;10108;50.142;8.724;2022-09-09T03:08:27;11.20;;;6.05;;
19891;SDS011;10108;50.142;8.724;2022-09-09T03:10:55;8.23;;;5.97;;
19891;SDS011;10108;50.142;8.724;2022-09-09T03:13:25;8.65;;;5.95;;
19891;SDS011;10108;50.142;8.724;2022-09-09T03:15:51;9.18;;;5.80;;
19891;SDS011;10108;50.142;8.724;2022-09-09T03:18:19;9.43;;;5.78;;
19891;SDS011;10108;50.142;8.724;2022-09-09T03:20:49;11.77;;;6.00;;
19891;SDS011;10108;50.142;8.724;2022-09-09T03:23:17;10.98;;;5.93;;
19891;SDS011;10108;50.142;8.724;2022-09-09T03:25:51;10.10;;;5.78;;
19891;SDS011;10108;50.142;8.724;2022-09-09T03:28:23;10.38;;;5.82;;
19891;SDS011;10108;50.142;8.724;2022-09-09T03:31:00;11.65;;;6.25;;
19891;SDS011;10108;50.142;8.724;2022-09-09T03:33:29;12.10;;;6.22;;
19891;SDS011;10108;50.142;8.724;2022-09-09T03:35:55;12.23;;;6.00;;
19891;SDS011;10108;50.142;8.724;2022-09-09T03:38:23;9.75;;;5.88;;
19891;SDS011;10108;50.142;8.724;2022-09-09T03:40:50;10.52;;;6.18;;
19891;SDS011;10108;50.142;8.724;2022-09-09T03:43:19;9.60;;;5.70;;
19891;SDS011;10108;50.142;8.724;2022-09-09T03:45:47;9.13;;;6.10;;
19891;SDS011;10108;50.142;8.724;2022-09-09T03:48:14;8.85;;;6.10;;
19891;SDS011;10108;50.142;8.724;2022-09-09T03:50:48;10.55;;;5.97;;
19891;SDS011;10108;50.142;8.724;2022-09-09T03:53:15;8.75;;;5.85;;
19891;SDS011;10108;50.142;8.724;2022-09-09T03:55:46;9.75;;;5.60;;
19891;SDS011;10108;50.142;8.724;2022-09-09T03:58:14;10.27;;;6.30;;
19891;SDS011;10108;50.142;8.724;2022-09-09T04:00:52;10.80;;;5.60;;
19891;SDS011;10108;50.142;8.724;2022-09-09T04:03:20;9.68;;;5.80;;
19891;SDS011;10108;50.142;8.724;2022-09-09T04:05:48;10.43;;;6.15;;
19891;SDS011;10108;50.142;8.724;2022-09-09T04:08:14;11.45;;;6.28;;
19891;SDS011;10108;50.142;8.724;2022-09-09T04:10:41;8.07;;;5.90;;
19891;SDS011;10108;50.142;8.724;2022-09-09T04:13:09;8.27;;;6.10;;
19891;SDS011;10108;50.142;8.724;2022-09-09T04:15:37;10.68;;;5.70;;
19891;SDS011;10108;50.142;8.724;2022-09-09T04:18:03;7.82;;;5.78;;
19891;SDS011;10108;50.142;8.724;2022-09-09T04:20:29;10.25;;;5.95;;
19891;SDS011;10108;50.142;8.724;2022-09-09T04:22:56;9.27;;;6.20;;
19891;SDS011;10108;50.142;8.724;2022-09-09T04:25:22;11.80;;;6.20;;
19891;SDS011;10108;50.142;8.724;2022-09-09T04:27:53;8.48;;;5.97;;
19891;SDS011;10108;50.142;8.724;2022-09-09T04:30:21;8.32;;;6.30;;
19891;SDS011;10108;50.142;8.724;2022-09-09T04:32:47;11.02;;;6.18;;
19891;SDS011;10108;50.142;8.724;2022-09-09T04:35:13;11.05;;;6.53;;
19891;SDS011;10108;50.142;8.724;2022-09-09T04:37:39;10.98;;;6.40;;
19891;SDS011;10108;50.142;8.724;2022-09-09T04:40:06;9.82;;;6.43;;
19891;SDS011;10108;50.142;8.724;2022-09-09T04:42:35;10.05;;;6.57;;
19891;SDS011;10108;50.142;8.724;2022-09-09T04:45:02;10.68;;;6.53;;
19891;SDS011;10108;50.142;8.724;2022-09-09T04:47:30;9.65;;;6.15;;
19891;SDS011;10108;50.142;8.724;2022-09-09T04:49:56;10.90;;;6.03;;
19891;SDS011;10108;50.142;8.724;2022-09-09T04:52:23;8.27;;;5.90;;
19891;SDS011;10108;50.142;8.724;2022-09-09T04:54:49;8.25;;;6.10;;
19891;SDS011;10108;50.142;8.724;2022-09-09T04:57:15;8.18;;;6.03;;
19891;SDS011;10108;50.142;8.724;2022-09-09T04:59:41;9.18;;;6.38;;
19891;SDS011;10108;50.142;8.724;2022-09-09T05:02:08;9.18;;;6.60;;
19891;SDS011;10108;50.142;8.724;2022-09-09T05:04:34;7.78;;;6.15;;
19891;SDS011;10108;50.142;8.724;2022-09-09T05:07:01;10.73;;;6.60;;
19891;SDS011;10108;50.142;8.724;2022-09-09T05:09:27;9.45;;;6.15;;
19891;SDS011;10108;50.142;8.724;2022-09-09T05:11:53;12.40;;;6.25;;
19891;SDS011;10108;50.142;8.724;2022-09-09T05:14:27;9.38;;;6.28;;
19891;SDS011;10108;50.142;8.724;2022-09-09T05:16:54;10.15;;;6.43;;
19891;SDS011;10108;50.142;8.724;2022-09-09T05:19:22;9.30;;;6.22;;
19891;SDS011;10108;50.142;8.724;2022-09-09T05:21:48;8.27;;;6.07;;
19891;SDS011;10108;50.142;8.724;2022-09-09T05:24:19;11.20;;;6.60;;
19891;SDS011;10108;50.142;8.724;2022-09-09T05:26:47;9.38;;;6.20;;
19891;SDS011;10108;50.142;8.724;2022-09-09T05:29:14;7.13;;;5.93;;
19891;SDS011;10108;50.142;8.724;2022-09-09T05:31:40;7.53;;;6.18;;
19891;SDS011;10108;50.142;8.724;2022-09-09T05:34:10;10.10;;;6.50;;
19891;SDS011;10108;50.142;8.724;2022-09-09T05:36:37;12.32;;;6.60;;
19891;SDS011;10108;50.142;8.724;2022-09-09T05:39:03;7.03;;;6.00;;
19891;SDS011;10108;50.142;8.724;2022-09-09T05:41:31;7.90;;;6.20;;
19891;SDS011;10108;50.142;8.724;2022-09-09T05:44:00;8.38;;;6.07;;
19891;SDS011;10108;50.142;8.724;2022-09-09T05:46:26;9.60;;;6.72;;
19891;SDS011;10108;50.142;8.724;2022-09-09T05:48:53;11.38;;;6.35;;
19891;SDS011;10108;50.142;8.724;2022-09-09T05:51:26;10.25;;;6.15;;
19891;SDS011;10108;50.142;8.724;2022-09-09T05:53:56;10.07;;;6.50;;
19891;SDS011;10108;50.142;8.724;2022-09-09T05:56:28;7.18;;;5.78;;
19891;SDS011;10108;50.142;8.724;2022-09-09T05:58:56;10.23;;;6.20;;
19891;SDS011;10108;50.142;8.724;2022-09-09T06:01:26;9.80;;;6.60;;
19891;SDS011;10108;50.142;8.724;2022-09-09T06:03:57;11.35;;;6.60;;
19891;SDS011;10108;50.142;8.724;2022-09-09T06:06:25;12.90;;;7.00;;
19891;SDS011;10108;50.142;8.724;2022-09-09T06:08:55;7.90;;;5.90;;
19891;SDS011;10108;50.142;8.724;2022-09-09T06:11:32;12.35;;;6.10;;
19891;SDS011;10108;50.142;8.724;2022-09-09T06:13:59;11.80;;;6.50;;
19891;SDS011;10108;50.142;8.724;2022-09-09T06:16:27;8.95;;;6.00;;
19891;SDS011;10108;50.142;8.724;2022-09-09T06:18:55;10.82;;;6.20;;
19891;SDS011;10108;50.142;8.724;2022-09-09T06:21:33;10.50;;;6.28;;
19891;SDS011;10108;50.142;8.724;2022-09-09T06:24:05;9.85;;;6.40;;
19891;SDS011;10108;50.142;8.724;2022-09-09T06:26:34;11.65;;;6.45;;
19891;SDS011;10108;50.142;8.724;2022-09-09T06:29:02;12.63;;;6.50;;
19891;SDS011;10108;50.142;8.724;2022-09-09T06:31:30;9.45;;;6.40;;
19891;SDS011;10108;50.142;8.724;2022-09-09T06:34:06;9.35;;;6.30;;
19891;SDS011;10108;50.142;8.724;2022-09-09T06:36:35;9.25;;;6.10;;
19891;SDS011;10108;50.142;8.724;2022-09-09T06:39:04;10.90;;;6.32;;
19891;SDS011;10108;50.142;8.724;2022-09-09T06:41:33;11.73;;;6.68;;
19891;SDS011;10108;50.142;8.724;2022-09-09T06:44:01;10.90;;;6.07;;
19891;SDS011;10108;50.142;8.724;2022-09-09T06:46:33;11.50;;;6.28;;
19891;SDS011;10108;50.142;8.724;2022-09-09T06:49:01;9.73;;;6.30;;
19891;SDS011;10108;50.142;8.724;2022-09-09T06:51:31;11.43;;;6.13;;
19891;SDS011;10108;50.142;8.724;2022-09-09T06:54:02;10.15;;;5.90;;
19891;SDS011;10108;50.142;8.724;2022-09-09T06:56:30;8.90;;;5.70;;
19891;SDS011;10108;50.142;8.724;2022-09-09T06:59:01;8.00;;;5.82;;
19891;SDS011;10108;50.142;8.724;2022-09-09T07:01:31;8.48;;;5.88;;
19891;SDS011;10108;50.142;8.724;2022-09-09T07:04:11;7.50;;;5.50;;
19891;SDS011;10108;50.142;8.724;2022-09-09T07:06:42;8.20;;;5.60;;
19891;SDS011;10108;50.142;8.724;2022-09-09T07:09:12;7.65;;;5.70;;
19891;SDS011;10108;50.142;8.724;2022-09-09T07:11:47;9.25;;;5.55;;
19891;SDS011;10108;50.142;8.724;2022-09-09T07:14:15;8.05;;;5.70;;
19891;SDS011;10108;50.142;8.724;2022-09-09T07:16:45;10.77;;;5.80;;
19891;SDS011;10108;50.142;8.724;2022-09-09T07:19:13;10.25;;;6.18;;
19891;SDS011;10108;50.142;8.724;2022-09-09T07:21:41;8.25;;;5.38;;
19891;SDS011;10108;50.142;8.724;2022-09-09T07:24:09;8.93;;;5.80;;
19891;SDS011;10108;50.142;8.724;2022-09-09T07:26:38;10.13;;;6.20;;
19891;SDS011;10108;50.142;8.724;2022-09-09T07:29:05;8.10;;;5.55;;
19891;SDS011;10108;50.142;8.724;2022-09-09T07:31:32;10.60;;;5.70;;
19891;SDS011;10108;50.142;8.724;2022-09-09T07:34:01;12.27;;;5.90;;
19891;SDS011;10108;50.142;8.724;2022-09-09T07:36:30;7.43;;;5.47;;
19891;SDS011;10108;50.142;8.724;2022-09-09T07:39:05;10.27;;;5.57;;
19891;SDS011;10108;50.142;8.724;2022-09-09T07:44:05;7.65;;;5.82;;
19891;SDS011;10108;50.142;8.724;2022-09-09T07:46:33;10.48;;;5.97;;
19891;SDS011;10108;50.142;8.724;2022-09-09T07:49:00;12.00;;;5.60;;
19891;SDS011;10108;50.142;8.724;2022-09-09T07:51:34;9.90;;;5.88;;
19891;SDS011;10108;50.142;8.724;2022-09-09T07:54:03;11.48;;;6.18;;
19891;SDS011;10108;50.142;8.724;2022-09-09T07:56:36;9.90;;;6.43;;
19891;SDS011;10108;50.142;8.724;2022-09-09T07:59:04;9.10;;;5.60;;
19891;SDS011;10108;50.142;8.724;2022-09-09T08:01:33;10.10;;;5.90;;
19891;SDS011;10108;50.142;8.724;2022-09-09T08:04:04;11.48;;;5.97;;
19891;SDS011;10108;50.142;8.724;2022-09-09T08:06:35;8.82;;;6.00;;
19891;SDS011;10108;50.142;8.724;2022-09-09T08:09:04;9.98;;;5.90;;
19891;SDS011;10108;50.142;8.724;2022-09-09T08:11:32;10.85;;;5.80;;
19891;SDS011;10108;50.142;8.724;2022-09-09T08:14:00;11.15;;;5.90;;
19891;SDS011;10108;50.142;8.724;2022-09-09T08:16:27;10.15;;;5.78;;
19891;SDS011;10108;50.142;8.724;2022-09-09T08:18:56;7.18;;;5.75;;
19891;SDS011;10108;50.142;8.724;2022-09-09T08:21:23;9.65;;;5.60;;
19891;SDS011;10108;50.142;8.724;2022-09-09T08:23:55;10.80;;;5.85;;
19891;SDS011;10108;50.142;8.724;2022-09-09T08:26:33;7.18;;;5.57;;
19891;SDS011;10108;50.142;8.724;2022-09-09T08:29:02;9.98;;;5.85;;
19891;SDS011;10108;50.142;8.724;2022-09-09T08:31:31;10.38;;;5.88;;
19891;SDS011;10108;50.142;8.724;2022-09-09T08:33:59;9.20;;;5.97;;
19891;SDS011;10108;50.142;8.724;2022-09-09T08:36:29;6.65;;;5.68;;
19891;SDS011;10108;50.142;8.724;2022-09-09T08:38:59;7.78;;;5.50;;
19891;SDS011;10108;50.142;8.724;2022-09-09T08:41:40;7.65;;;5.40;;
19891;SDS011;10108;50.142;8.724;2022-09-09T08:52:54;8.32;;;6.13;;
19891;SDS011;10108;50.142;8.724;2022-09-09T08:55:41;11.23;;;6.65;;
19891;SDS011;10108;50.142;8.724;2022-09-09T08:58:19;8.65;;;5.97;;
19891;SDS011;10108;50.142;8.724;2022-09-09T09:00:53;9.75;;;6.15;;
19891;SDS011;10108;50.142;8.724;2022-09-09T09:06:26;12.45;;;6.60;;
19891;SDS011;10108;50.142;8.724;2022-09-09T09:09:11;11.32;;;6.40;;
19891;SDS011;10108;50.142;8.724;2022-09-09T09:12:01;9.60;;;6.30;;
19891;SDS011;10108;50.142;8.724;2022-09-09T09:14:36;9.70;;;5.82;;
19891;SDS011;10108;50.142;8.724;2022-09-09T09:17:10;10.57;;;5.90;;
19891;SDS011;10108;50.142;8.724;2022-09-09T09:19:39;9.93;;;6.07;;
19891;SDS011;10108;50.142;8.724;2022-09-09T09:30:40;9.88;;;6.07;;
19891;SDS011;10108;50.142;8.724;2022-09-09T09:35:40;9.93;;;6.65;;
19891;SDS011;10108;50.142;8.724;2022-09-09T09:38:20;10.52;;;6.50;;
19891;SDS011;10108;50.142;8.724;2022-09-09T09:40:52;8.52;;;6.32;;
19891;SDS011;10108;50.142;8.724;2022-09-09T09:43:27;9.45;;;5.97;;
19891;SDS011;10108;50.142;8.724;2022-09-09T09:45:57;11.52;;;6.13;;
19891;SDS011;10108;50.142;8.724;2022-09-09T09:48:25;9.18;;;5.72;;
19891;SDS011;10108;50.142;8.724;2022-09-09T09:51:04;9.65;;;5.95;;
19891;SDS011;10108;50.142;8.724;2022-09-09T09:53:40;10.00;;;6.00;;
19891;SDS011;10108;50.142;8.724;2022-09-09T09:56:10;12.93;;;6.30;;
19891;SDS011;10108;50.142;8.724;2022-09-09T10:01:23;9.13;;;5.85;;
19891;SDS011;10108;50.142;8.724;2022-09-09T10:06:46;10.77;;;6.13;;
19891;SDS011;10108;50.142;8.724;2022-09-09T10:09:26;12.52;;;6.35;;
19891;SDS011;10108;50.142;8.724;2022-09-09T10:22:35;14.05;;;6.40;;
19891;SDS011;10108;50.142;8.724;2022-09-09T10:25:10;9.82;;;6.35;;
19891;SDS011;10108;50.142;8.724;2022-09-09T10:27:48;11.07;;;6.75;;
19891;SDS011;10108;50.142;8.724;2022-09-09T10:30:28;13.57;;;6.70;;
19891;SDS011;10108;50.142;8.724;2022-09-09T10:33:20;14.50;;;6.53;;
19891;SDS011;10108;50.142;8.724;2022-09-09T10:36:02;13.90;;;6.70;;
19891;SDS011;10108;50.142;8.724;2022-09-09T10:38:53;12.02;;;6.47;;
19891;SDS011;10108;50.142;8.724;2022-09-09T10:44:44;12.38;;;6.60;;
19891;SDS011;10108;50.142;8.724;2022-09-09T10:47:35;9.20;;;6.22;;
19891;SDS011;10108;50.142;8.724;2022-09-09T10:50:14;12.75;;;6.43;;
19891;SDS011;10108;50.142;8.724;2022-09-09T10:53:02;11.00;;;6.40;;
19891;SDS011;10108;50.142;8.724;2022-09-09T10:55:53;9.48;;;6.60;;
19891;SDS011;10108;50.142;8.724;2022-09-09T10:58:47;8.95;;;6.45;;
19891;SDS011;10108;50.142;8.724;2022-09-09T11:01:22;9.65;;;6.30;;
19891;SDS011;10108;50.142;8.724;2022-09-09T11:03:54;17.25;;;13.52;;
19891;SDS011;10108;50.142;8.724;2022-09-09T11:06:27;26.38;;;22.10;;
19891;SDS011;10108;50.142;8.724;2022-09-09T11:08:58;17.13;;;15.32;;
19891;SDS011;10108;50.142;8.724;2022-09-09T11:11:32;15.68;;;14.10;;
19891;SDS011;10108;50.142;8.724;2022-09-09T11:16:41;14.85;;;12.45;;
19891;SDS011;10108;50.142;8.724;2022-09-09T11:19:35;16.33;;;12.63;;
19891;SDS011;10108;50.142;8.724;2022-09-09T11:33:31;18.45;;;11.73;;
19891;SDS011;10108;50.142;8.724;2022-09-09T11:36:38;15.15;;;10.73;;
19891;SDS011;10108;50.142;8.724;2022-09-09T11:42:07;13.07;;;10.80;;
19891;SDS011;10108;50.142;8.724;2022-09-09T11:44:39;12.63;;;10.48;;
19891;SDS011;10108;50.142;8.724;2022-09-09T11:47:23;15.05;;;10.38;;
19891;SDS011;10108;50.142;8.724;2022-09-09T11:52:42;12.52;;;10.23;;
19891;SDS011;10108;50.142;8.724;2022-09-09T11:55:27;14.75;;;9.70;;
19891;SDS011;10108;50.142;8.724;2022-09-09T11:57:57;13.85;;;9.68;;
19891;SDS011;10108;50.142;8.724;2022-09-09T12:03:03;11.68;;;9.05;;
19891;SDS011;10108;50.142;8.724;2022-09-09T12:05:40;12.93;;;8.70;;
19891;SDS011;10108;50.142;8.724;2022-09-09T12:08:10;8.77;;;7.85;;
19891;SDS011;10108;50.142;8.724;2022-09-09T12:10:53;9.10;;;7.40;;
19891;SDS011;10108;50.142;8.724;2022-09-09T12:13:22;15.20;;;9.88;;
19891;SDS011;10108;50.142;8.724;2022-09-09T12:15:52;13.02;;;9.60;;
19891;SDS011;10108;50.142;8.724;2022-09-09T12:18:24;11.07;;;9.15;;
19891;SDS011;10108;50.142;8.724;2022-09-09T12:21:04;12.15;;;8.82;;
19891;SDS011;10108;50.142;8.724;2022-09-09T12:23:58;10.45;;;8.45;;
19891;SDS011;10108;50.142;8.724;2022-09-09T12:29:06;9.80;;;7.60;;
19891;SDS011;10108;50.142;8.724;2022-09-09T12:32:00;9.65;;;7.25;;
19891;SDS011;10108;50.142;8.724;2022-09-09T12:35:18;9.93;;;7.28;;
19891;SDS011;10108;50.142;8.724;2022-09-09T12:37:45;10.25;;;7.30;;
19891;SDS011;10108;50.142;8.724;2022-09-09T12:40:22;9.50;;;7.05;;
19891;SDS011;10108;50.142;8.724;2022-09-09T12:42:52;12.18;;;6.70;;
19891;SDS011;10108;50.142;8.724;2022-09-09T12:45:22;9.48;;;6.80;;
19891;SDS011;10108;50.142;8.724;2022-09-09T12:47:54;9.43;;;6.78;;
19891;SDS011;10108;50.142;8.724;2022-09-09T12:50:28;13.48;;;6.82;;
19891;SDS011;10108;50.142;8.724;2022-09-09T12:53:02;12.82;;;6.78;;
19891;SDS011;10108;50.142;8.724;2022-09-09T12:55:35;12.48;;;6.68;;
19891;SDS011;10108;50.142;8.724;2022-09-09T12:58:03;10.85;;;8.40;;
19891;SDS011;10108;50.142;8.724;2022-09-09T13:00:32;18.90;;;10.50;;
19891;SDS011;10108;50.142;8.724;2022-09-09T13:03:13;14.93;;;12.52;;
19891;SDS011;10108;50.142;8.724;2022-09-09T13:05:42;13.05;;;11.68;;
19891;SDS011;10108;50.142;8.724;2022-09-09T13:08:09;13.98;;;11.20;;
19891;SDS011;10108;50.142;8.724;2022-09-09T13:10:38;17.63;;;11.77;;
19891;SDS011;10108;50.142;8.724;2022-09-09T13:13:37;13.35;;;11.43;;
19891;SDS011;10108;50.142;8.724;2022-09-09T13:16:05;14.82;;;11.18;;
19891;SDS011;10108;50.142;8.724;2022-09-09T13:18:43;12.20;;;10.98;;
19891;SDS011;10108;50.142;8.724;2022-09-09T13:21:09;13.18;;;10.73;;
19891;SDS011;10108;50.142;8.724;2022-09-09T13:23:36;16.17;;;10.75;;
19891;SDS011;10108;50.142;8.724;2022-09-09T13:26:04;13.18;;;10.40;;
19891;SDS011;10108;50.142;8.724;2022-09-09T13:28:45;16.25;;;10.73;;
19891;SDS011;10108;50.142;8.724;2022-09-09T13:31:27;13.90;;;10.52;;
19891;SDS011;10108;50.142;8.724;2022-09-09T13:33:55;14.32;;;10.23;;
19891;SDS011;10108;50.142;8.724;2022-09-09T13:36:29;15.32;;;10.27;;
19891;SDS011;10108;50.142;8.724;2022-09-09T13:39:00;11.45;;;9.38;;
19891;SDS011;10108;50.142;8.724;2022-09-09T13:41:32;10.48;;;9.38;;
19891;SDS011;10108;50.142;8.724;2022-09-09T13:44:01;13.15;;;9.50;;
19891;SDS011;10108;50.142;8.724;2022-09-09T13:46:33;11.60;;;9.25;;
19891;SDS011;10108;50.142;8.724;2022-09-09T13:49:02;10.80;;;8.98;;
19891;SDS011;10108;50.142;8.724;2022-09-09T13:51:35;10.82;;;8.80;;
19891;SDS011;10108;50.142;8.724;2022-09-09T13:54:05;12.93;;;8.90;;
19891;SDS011;10108;50.142;8.724;2022-09-09T13:56:32;11.13;;;8.40;;
19891;SDS011;10108;50.142;8.724;2022-09-09T13:59:00;9.05;;;7.60;;
19891;SDS011;10108;50.142;8.724;2022-09-09T14:01:28;9.32;;;7.18;;
19891;SDS011;10108;50.142;8.724;2022-09-09T14:03:54;10.02;;;6.95;;
19891;SDS011;10108;50.142;8.724;2022-09-09T14:06:20;9.10;;;6.60;;
19891;SDS011;10108;50.142;8.724;2022-09-09T14:08:50;7.43;;;6.45;;
19891;SDS011;10108;50.142;8.724;2022-09-09T14:11:16;8.60;;;6.20;;
19891;SDS011;10108;50.142;8.724;2022-09-09T14:13:43;8.80;;;6.38;;
19891;SDS011;10108;50.142;8.724;2022-09-09T14:16:09;7.90;;;5.95;;
19891;SDS011;10108;50.142;8.724;2022-09-09T14:18:36;7.15;;;5.85;;
19891;SDS011;10108;50.142;8.724;2022-09-09T14:21:03;6.13;;;5.53;;
19891;SDS011;10108;50.142;8.724;2022-09-09T14:23:29;8.25;;;5.57;;
19891;SDS011;10108;50.142;8.724;2022-09-09T14:25:56;7.18;;;5.75;;
19891;SDS011;10108;50.142;8.724;2022-09-09T14:28:22;7.20;;;5.65;;
19891;SDS011;10108;50.142;8.724;2022-09-09T14:30:48;9.63;;;5.55;;
19891;SDS011;10108;50.142;8.724;2022-09-09T14:33:15;6.80;;;5.60;;
19891;SDS011;10108;50.142;8.724;2022-09-09T14:35:41;6.95;;;5.40;;
19891;SDS011;10108;50.142;8.724;2022-09-09T14:38:08;7.18;;;6.00;;
19891;SDS011;10108;50.142;8.724;2022-09-09T14:40:35;6.40;;;5.40;;
19891;SDS011;10108;50.142;8.724;2022-09-09T14:43:02;7.65;;;5.38;;
19891;SDS011;10108;50.142;8.724;2022-09-09T14:45:29;8.63;;;5.60;;
19891;SDS011;10108;50.142;8.724;2022-09-09T14:47:56;7.82;;;5.60;;
19891;SDS011;10108;50.142;8.724;2022-09-09T14:50:22;8.07;;;5.70;;
19891;SDS011;10108;50.142;8.724;2022-09-09T14:52:49;9.65;;;6.18;;
19891;SDS011;10108;50.142;8.724;2022-09-09T14:55:16;6.65;;;5.10;;
19891;SDS011;10108;50.142;8.724;2022-09-09T14:57:42;8.63;;;5.57;;
19891;SDS011;10108;50.142;8.724;2022-09-09T15:00:09;7.55;;;5.40;;
19891;SDS011;10108;50.142;8.724;2022-09-09T15:02:36;8.77;;;5.78;;
19891;SDS011;10108;50.142;8.724;2022-09-09T15:05:03;9.30;;;5.88;;
19891;SDS011;10108;50.142;8.724;2022-09-09T15:07:30;6.63;;;5.40;;
19891;SDS011;10108;50.142;8.724;2022-09-09T15:09:57;6.95;;;5.30;;
19891;SDS011;10108;50.142;8.724;2022-09-09T15:12:23;8.02;;;5.30;;
19891;SDS011;10108;50.142;8.724;2022-09-09T15:14:50;5.63;;;5.07;;
19891;SDS011;10108;50.142;8.724;2022-09-09T15:17:16;6.78;;;5.40;;
19891;SDS011;10108;50.142;8.724;2022-09-09T15:19:42;7.13;;;5.60;;
19891;SDS011;10108;50.142;8.724;2022-09-09T15:22:08;7.85;;;5.10;;
19891;SDS011;10108;50.142;8.724;2022-09-09T15:24:34;6.70;;;5.30;;
19891;SDS011;10108;50.142;8.724;2022-09-09T15:27:01;7.20;;;5.35;;
19891;SDS011;10108;50.142;8.724;2022-09-09T15:29:27;8.68;;;5.80;;
19891;SDS011;10108;50.142;8.724;2022-09-09T15:31:54;5.93;;;5.10;;
19891;SDS011;10108;50.142;8.724;2022-09-09T15:34:23;5.70;;;5.10;;
19891;SDS011;10108;50.142;8.724;2022-09-09T15:36:50;6.82;;;4.90;;
19891;SDS011;10108;50.142;8.724;2022-09-09T15:39:17;8.15;;;5.10;;
19891;SDS011;10108;50.142;8.724;2022-09-09T15:41:44;6.85;;;5.00;;
19891;SDS011;10108;50.142;8.724;2022-09-09T15:44:12;6.68;;;5.00;;
19891;SDS011;10108;50.142;8.724;2022-09-09T15:46:45;10.23;;;5.30;;
19891;SDS011;10108;50.142;8.724;2022-09-09T15:49:15;5.57;;;4.80;;
19891;SDS011;10108;50.142;8.724;2022-09-09T15:51:46;8.65;;;5.20;;
19891;SDS011;10108;50.142;8.724;2022-09-09T15:54:14;6.50;;;5.22;;
19891;SDS011;10108;50.142;8.724;2022-09-09T15:56:43;8.20;;;5.30;;
19891;SDS011;10108;50.142;8.724;2022-09-09T15:59:10;6.22;;;5.20;;
19891;SDS011;10108;50.142;8.724;2022-09-09T16:01:37;7.63;;;4.95;;
19891;SDS011;10108;50.142;8.724;2022-09-09T16:04:05;5.80;;;4.90;;
19891;SDS011;10108;50.142;8.724;2022-09-09T16:06:31;6.18;;;5.13;;
19891;SDS011;10108;50.142;8.724;2022-09-09T16:08:59;8.45;;;5.22;;
19891;SDS011;10108;50.142;8.724;2022-09-09T16:11:30;6.47;;;4.88;;
19891;SDS011;10108;50.142;8.724;2022-09-09T16:13:58;7.38;;;5.40;;
19891;SDS011;10108;50.142;8.724;2022-09-09T16:16:25;6.00;;;5.20;;
19891;SDS011;10108;50.142;8.724;2022-09-09T16:18:54;8.90;;;5.38;;
19891;SDS011;10108;50.142;8.724;2022-09-09T16:21:40;7.93;;;5.32;;
19891;SDS011;10108;50.142;8.724;2022-09-09T16:24:17;8.98;;;5.03;;
19891;SDS011;10108;50.142;8.724;2022-09-09T16:26:47;8.40;;;5.32;;
19891;SDS011;10108;50.142;8.724;2022-09-09T16:29:15;7.55;;;5.10;;
19891;SDS011;10108;50.142;8.724;2022-09-09T16:31:43;7.82;;;5.25;;
19891;SDS011;10108;50.142;8.724;2022-09-09T16:34:10;7.38;;;4.80;;
19891;SDS011;10108;50.142;8.724;2022-09-09T16:36:38;7.90;;;5.10;;
19891;SDS011;10108;50.142;8.724;2022-09-09T16:39:06;6.75;;;5.15;;
19891;SDS011;10108;50.142;8.724;2022-09-09T16:41:37;8.57;;;5.40;;
19891;SDS011;10108;50.142;8.724;2022-09-09T16:44:06;9.40;;;5.40;;
19891;SDS011;10108;50.142;8.724;2022-09-09T16:46:34;7.50;;;5.00;;
19891;SDS011;10108;50.142;8.724;2022-09-09T16:49:02;8.15;;;5.30;;
19891;SDS011;10108;50.142;8.724;2022-09-09T16:51:31;8.10;;;5.20;;
19891;SDS011;10108;50.142;8.724;2022-09-09T16:54:11;8.80;;;5.53;;
19891;SDS011;10108;50.142;8.724;2022-09-09T16:56:40;8.00;;;5.50;;
19891;SDS011;10108;50.142;8.724;2022-09-09T16:59:08;10.43;;;5.65;;